Carnival Destiny — C6FN4 — position and weather

sailwx.info

Track history (hours):
 
Tides and Currents Weather Stations Pressure Air Temp Water Temp Dewpoint Dewpoint Depression Visibility Wind Speed Wind Dir Waves Ship Positions

Carnival Destiny

Operator: Carnival Cruise Lines

Last reported at 2018-Sep-16 03:57 UTC. Time now 2018-Sep-19 03:19 UTC.
Position N 27°40' W 078°41'.

Type: Ship. MMSI: 308017000.

Date/timePositionNaut miles runAvg speedWind from/ knotsBaromVisibWave heightAir tempDewpointWater temp
2018-Sep-16 03:57N 27°40' W 078°41'  
2018-Sep-13 04:53N 18°12' W 065°00'716.7
2018-Sep-13 04:29N 18°10' W 064°53'716.2
2018-Sep-13 04:03N 18°08' W 064°46'116.1
2018-Sep-13 04:00N 18°08' W 064°45'5816.3
2018-Sep-13 00:25N 18°03' W 063°44'616.5
2018-Sep-13 00:02N 18°02' W 063°38'115.6
2018-Sep-12 23:59N 18°02' W 063°37'916.3
2018-Sep-12 23:26N 18°02' W 063°27'716.4
2018-Sep-12 23:01N 18°01' W 063°20'116.7
2018-Sep-12 22:59N 18°01' W 063°19'816.6
2018-Sep-12 22:30N 18°01' W 063°11'815.2
2018-Sep-12 22:00N 18°00' W 063°03'1 1.3
2018-Sep-12 21:26N 18°01' W 063°03'0 0.0
2018-Sep-12 20:56N 18°01' W 063°03'0 0.0
2018-Sep-12 20:26N 18°01' W 063°03'0 0.0
2018-Sep-12 19:59N 18°01' W 063°03'0 0.0
2018-Sep-12 19:29N 18°01' W 063°03'0 0.0
2018-Sep-12 18:59N 18°01' W 063°03'0 0.0
2018-Sep-12 18:29N 18°01' W 063°03'0 0.0
2018-Sep-12 16:29N 18°01' W 063°03'0 0.0
2018-Sep-12 15:50N 18°01' W 063°03'0 0.0
2018-Sep-12 15:20N 18°01' W 063°03'0 0.0
2018-Sep-12 15:02N 18°01' W 063°03'0 0.0
2018-Sep-12 14:45N 18°01' W 063°03'0 0.0
2018-Sep-12 14:20N 18°01' W 063°03'0 0.0
2018-Sep-12 13:17N 18°01' W 063°03'0 0.0
2018-Sep-12 13:02N 18°01' W 063°03'0 0.0
2018-Sep-12 12:47N 18°01' W 063°03'0 0.0
2018-Sep-12 12:23N 18°01' W 063°03'0 0.0
2018-Sep-12 11:47N 18°01' W 063°03'0 0.0
2018-Sep-12 11:23N 18°01' W 063°03'0 0.6
2018-Sep-12 10:53N 18°00' W 063°03'3 7.0
2018-Sep-12 10:30N 18°01' W 063°06'4 8.1
2018-Sep-12 10:01N 18°01' W 063°10'2 8.8
2018-Sep-12 09:50N 18°01' W 063°12'4 8.9
2018-Sep-12 09:25N 18°01' W 063°15'3 8.9
2018-Sep-12 09:02N 18°02' W 063°19'1 8.9
2018-Sep-12 08:56N 18°02' W 063°20'4 8.9
2018-Sep-12 08:26N 18°02' W 063°25'6 8.9
2018-Sep-12 07:48N 18°03' W 063°30'4 8.7
2018-Sep-12 07:21N 18°03' W 063°35'4 8.7
2018-Sep-12 06:54N 18°03' W 063°39'4 8.5
2018-Sep-12 06:28N 18°03' W 063°43'4 8.3
2018-Sep-12 05:56N 17°60' W 063°45'5 9.3
2018-Sep-12 05:23N 17°54' W 063°45'4 9.0
2018-Sep-12 04:56N 17°51' W 063°44'4 8.9
2018-Sep-12 04:29N 17°50' W 063°39'4 9.1
2018-Sep-12 04:02N 17°50' W 063°35'0 9.0
2018-Sep-12 04:00N 17°49' W 063°35'5 9.3
2018-Sep-12 03:28N 17°49' W 063°30'916.6
2018-Sep-12 02:55N 17°46' W 063°21'817.9
2018-Sep-12 02:27N 17°42' W 063°13'817.8
2018-Sep-12 01:59N 17°35' W 063°09'1017.3
2018-Sep-12 01:23N 17°27' W 063°03'917.5
2018-Sep-12 00:51N 17°21' W 062°55'0 0.0
2018-Sep-11 13:11N 17°21' W 062°55'417.0
2018-Sep-11 12:58N 17°23' W 062°58'917.3
2018-Sep-11 12:28N 17°28' W 063°05'1117.3
2018-Sep-11 11:50N 17°38' W 063°10'616.6
2018-Sep-11 11:28N 17°43' W 063°13'716.7
2018-Sep-11 11:03N 17°46' W 063°19'216.7
2018-Sep-11 10:58N 17°47' W 063°21'915.8
2018-Sep-11 10:23N 17°52' W 063°29'617.2
2018-Sep-11 10:02N 17°58' W 063°31'117.1
2018-Sep-11 09:58N 17°59' W 063°32'817.0
2018-Sep-11 09:30N 18°06' W 063°35'33518.1
2018-Sep-10 15:00N 21°30' W 068°18'   070 / 121016.010.8 28.025.229.0
Track history (hours):
 
Tides and Currents Weather Stations Pressure Air Temp Water Temp Dewpoint Dewpoint Depression Visibility Wind Speed Wind Dir Waves Ship Positions

Carnival Destiny

Operator: Carnival Cruise Lines

Last reported at 2018-Sep-16 03:57 UTC. Time now 2018-Sep-19 03:19 UTC.
Position N 27°40' W 078°41'.

Type: Ship. MMSI: 308017000.

Date/timePositionNaut miles runAvg speedWind from/ knotsBaromVisibWave heightAir tempDewpointWater temp
2018-Sep-16 03:57N 27°40' W 078°41'  
2018-Sep-13 04:53N 18°12' W 065°00'716.7
2018-Sep-13 04:29N 18°10' W 064°53'716.2
2018-Sep-13 04:03N 18°08' W 064°46'116.1
2018-Sep-13 04:00N 18°08' W 064°45'5816.3
2018-Sep-13 00:25N 18°03' W 063°44'616.5
2018-Sep-13 00:02N 18°02' W 063°38'115.6
2018-Sep-12 23:59N 18°02' W 063°37'916.3
2018-Sep-12 23:26N 18°02' W 063°27'716.4
2018-Sep-12 23:01N 18°01' W 063°20'116.7
2018-Sep-12 22:59N 18°01' W 063°19'816.6
2018-Sep-12 22:30N 18°01' W 063°11'815.2
2018-Sep-12 22:00N 18°00' W 063°03'1 1.3
2018-Sep-12 21:26N 18°01' W 063°03'0 0.0
2018-Sep-12 20:56N 18°01' W 063°03'0 0.0
2018-Sep-12 20:26N 18°01' W 063°03'0 0.0
2018-Sep-12 19:59N 18°01' W 063°03'0 0.0
2018-Sep-12 19:29N 18°01' W 063°03'0 0.0
2018-Sep-12 18:59N 18°01' W 063°03'0 0.0
2018-Sep-12 18:29N 18°01' W 063°03'0 0.0
2018-Sep-12 16:29N 18°01' W 063°03'0 0.0
2018-Sep-12 15:50N 18°01' W 063°03'0 0.0
2018-Sep-12 15:20N 18°01' W 063°03'0 0.0
2018-Sep-12 15:02N 18°01' W 063°03'0 0.0
2018-Sep-12 14:45N 18°01' W 063°03'0 0.0
2018-Sep-12 14:20N 18°01' W 063°03'0 0.0
2018-Sep-12 13:17N 18°01' W 063°03'0 0.0
2018-Sep-12 13:02N 18°01' W 063°03'0 0.0
2018-Sep-12 12:47N 18°01' W 063°03'0 0.0
2018-Sep-12 12:23N 18°01' W 063°03'0 0.0
2018-Sep-12 11:47N 18°01' W 063°03'0 0.0
2018-Sep-12 11:23N 18°01' W 063°03'0 0.6
2018-Sep-12 10:53N 18°00' W 063°03'3 7.0
2018-Sep-12 10:30N 18°01' W 063°06'4 8.1
2018-Sep-12 10:01N 18°01' W 063°10'2 8.8
2018-Sep-12 09:50N 18°01' W 063°12'4 8.9
2018-Sep-12 09:25N 18°01' W 063°15'3 8.9
2018-Sep-12 09:02N 18°02' W 063°19'1 8.9
2018-Sep-12 08:56N 18°02' W 063°20'4 8.9
2018-Sep-12 08:26N 18°02' W 063°25'6 8.9
2018-Sep-12 07:48N 18°03' W 063°30'4 8.7
2018-Sep-12 07:21N 18°03' W 063°35'4 8.7
2018-Sep-12 06:54N 18°03' W 063°39'4 8.5
2018-Sep-12 06:28N 18°03' W 063°43'4 8.3
2018-Sep-12 05:56N 17°60' W 063°45'5 9.3
2018-Sep-12 05:23N 17°54' W 063°45'4 9.0
2018-Sep-12 04:56N 17°51' W 063°44'4 8.9
2018-Sep-12 04:29N 17°50' W 063°39'4 9.1
2018-Sep-12 04:02N 17°50' W 063°35'0 9.0
2018-Sep-12 04:00N 17°49' W 063°35'5 9.3
2018-Sep-12 03:28N 17°49' W 063°30'916.6
2018-Sep-12 02:55N 17°46' W 063°21'817.9
2018-Sep-12 02:27N 17°42' W 063°13'817.8
2018-Sep-12 01:59N 17°35' W 063°09'1017.3
2018-Sep-12 01:23N 17°27' W 063°03'917.5
2018-Sep-12 00:51N 17°21' W 062°55'0 0.0
2018-Sep-11 13:11N 17°21' W 062°55'417.0
2018-Sep-11 12:58N 17°23' W 062°58'917.3
2018-Sep-11 12:28N 17°28' W 063°05'1117.3
2018-Sep-11 11:50N 17°38' W 063°10'616.6
2018-Sep-11 11:28N 17°43' W 063°13'716.7
2018-Sep-11 11:03N 17°46' W 063°19'216.7
2018-Sep-11 10:58N 17°47' W 063°21'915.8
2018-Sep-11 10:23N 17°52' W 063°29'617.2
2018-Sep-11 10:02N 17°58' W 063°31'117.1
2018-Sep-11 09:58N 17°59' W 063°32'817.0
2018-Sep-11 09:30N 18°06' W 063°35'33518.1
2018-Sep-10 15:00N 21°30' W 068°18'   070 / 121016.010.8 28.025.229.0

Dump ship's entire track history